sensor_id;sensor_type;location;lat;lon;timestamp;temperature;humidity
13354;DHT22;6746;50.892;4.064;2023-02-18T00:00:59;11.20;99.90
13354;DHT22;6746;50.892;4.064;2023-02-18T00:03:37;11.20;99.90
13354;DHT22;6746;50.892;4.064;2023-02-18T00:06:17;11.20;99.90
13354;DHT22;6746;50.892;4.064;2023-02-18T00:08:56;11.20;99.90
13354;DHT22;6746;50.892;4.064;2023-02-18T00:11:44;11.20;99.90
13354;DHT22;6746;50.892;4.064;2023-02-18T00:14:31;11.20;99.90
13354;DHT22;6746;50.892;4.064;2023-02-18T00:17:19;11.20;99.90
13354;DHT22;6746;50.892;4.064;2023-02-18T00:20:08;11.20;99.90
13354;DHT22;6746;50.892;4.064;2023-02-18T00:22:46;11.20;99.90
13354;DHT22;6746;50.892;4.064;2023-02-18T00:25:25;11.10;99.90
13354;DHT22;6746;50.892;4.064;2023-02-18T00:28:12;11.10;99.90
13354;DHT22;6746;50.892;4.064;2023-02-18T00:31:10;11.10;99.90
13354;DHT22;6746;50.892;4.064;2023-02-18T00:33:57;11.20;99.90
13354;DHT22;6746;50.892;4.064;2023-02-18T00:36:45;11.10;99.90
13354;DHT22;6746;50.892;4.064;2023-02-18T00:39:26;11.10;99.90
13354;DHT22;6746;50.892;4.064;2023-02-18T00:42:05;11.10;99.90
13354;DHT22;6746;50.892;4.064;2023-02-18T00:44:50;11.20;99.90
13354;DHT22;6746;50.892;4.064;2023-02-18T00:47:29;11.20;99.90
13354;DHT22;6746;50.892;4.064;2023-02-18T00:50:15;11.10;99.90
13354;DHT22;6746;50.892;4.064;2023-02-18T00:52:53;11.10;99.90
13354;DHT22;6746;50.892;4.064;2023-02-18T00:55:38;11.10;99.90
13354;DHT22;6746;50.892;4.064;2023-02-18T00:58:15;11.10;99.90
13354;DHT22;6746;50.892;4.064;2023-02-18T01:00:54;11.10;99.90
13354;DHT22;6746;50.892;4.064;2023-02-18T01:03:32;11.10;99.90
13354;DHT22;6746;50.892;4.064;2023-02-18T01:06:20;11.10;99.90
13354;DHT22;6746;50.892;4.064;2023-02-18T01:08:58;11.00;99.90
13354;DHT22;6746;50.892;4.064;2023-02-18T01:11:37;11.00;99.90
13354;DHT22;6746;50.892;4.064;2023-02-18T01:14:25;11.00;99.90
13354;DHT22;6746;50.892;4.064;2023-02-18T01:17:03;11.00;99.90
13354;DHT22;6746;50.892;4.064;2023-02-18T01:19:41;11.00;99.90
13354;DHT22;6746;50.892;4.064;2023-02-18T01:22:29;11.00;99.90
13354;DHT22;6746;50.892;4.064;2023-02-18T01:25:17;11.00;99.90
13354;DHT22;6746;50.892;4.064;2023-02-18T01:28:06;11.00;99.90
13354;DHT22;6746;50.892;4.064;2023-02-18T01:30:53;11.00;99.90
13354;DHT22;6746;50.892;4.064;2023-02-18T01:33:42;11.00;99.90
13354;DHT22;6746;50.892;4.064;2023-02-18T01:36:25;11.00;99.90
13354;DHT22;6746;50.892;4.064;2023-02-18T01:39:04;11.00;99.90
13354;DHT22;6746;50.892;4.064;2023-02-18T01:41:45;10.90;99.90
13354;DHT22;6746;50.892;4.064;2023-02-18T01:44:24;10.90;99.90
13354;DHT22;6746;50.892;4.064;2023-02-18T01:47:01;10.90;99.90
13354;DHT22;6746;50.892;4.064;2023-02-18T01:49:40;10.80;99.90
13354;DHT22;6746;50.892;4.064;2023-02-18T01:52:28;10.80;99.90
13354;DHT22;6746;50.892;4.064;2023-02-18T01:55:06;10.80;99.90
13354;DHT22;6746;50.892;4.064;2023-02-18T01:57:44;10.80;99.90
13354;DHT22;6746;50.892;4.064;2023-02-18T02:00:22;10.80;99.90
13354;DHT22;6746;50.892;4.064;2023-02-18T02:03:01;10.80;99.90
13354;DHT22;6746;50.892;4.064;2023-02-18T02:05:39;10.80;99.90
13354;DHT22;6746;50.892;4.064;2023-02-18T02:08:17;10.80;99.90
13354;DHT22;6746;50.892;4.064;2023-02-18T02:27:23;10.80;99.90
13354;DHT22;6746;50.892;4.064;2023-02-18T02:30:13;10.80;99.90
13354;DHT22;6746;50.892;4.064;2023-02-18T02:36:13;10.80;99.90
13354;DHT22;6746;50.892;4.064;2023-02-18T02:39:00;10.80;99.90
13354;DHT22;6746;50.892;4.064;2023-02-18T02:54:21;10.80;99.90
13354;DHT22;6746;50.892;4.064;2023-02-18T02:59:56;10.80;99.90
13354;DHT22;6746;50.892;4.064;2023-02-18T03:02:53;10.70;99.90
13354;DHT22;6746;50.892;4.064;2023-02-18T03:05:43;10.70;99.90
13354;DHT22;6746;50.892;4.064;2023-02-18T03:15:38;10.60;99.90
13354;DHT22;6746;50.892;4.064;2023-02-18T03:18:04;10.60;99.90
13354;DHT22;6746;50.892;4.064;2023-02-18T03:21:03;10.60;99.90
13354;DHT22;6746;50.892;4.064;2023-02-18T03:23:51;10.60;99.90
13354;DHT22;6746;50.892;4.064;2023-02-18T03:26:32;10.60;99.90
13354;DHT22;6746;50.892;4.064;2023-02-18T03:29:10;10.60;99.90
13354;DHT22;6746;50.892;4.064;2023-02-18T03:31:49;10.60;99.90
13354;DHT22;6746;50.892;4.064;2023-02-18T03:34:30;10.60;99.90
13354;DHT22;6746;50.892;4.064;2023-02-18T03:37:07;10.60;99.90
13354;DHT22;6746;50.892;4.064;2023-02-18T03:39:56;10.60;99.90
13354;DHT22;6746;50.892;4.064;2023-02-18T03:42:43;10.60;99.90
13354;DHT22;6746;50.892;4.064;2023-02-18T03:45:32;10.60;99.90
13354;DHT22;6746;50.892;4.064;2023-02-18T03:48:20;10.60;99.90
13354;DHT22;6746;50.892;4.064;2023-02-18T03:50:58;10.90;99.90
13354;DHT22;6746;50.892;4.064;2023-02-18T03:53:37;10.60;99.90
13354;DHT22;6746;50.892;4.064;2023-02-18T03:56:18;10.60;99.90
13354;DHT22;6746;50.892;4.064;2023-02-18T03:58:55;10.60;99.90
13354;DHT22;6746;50.892;4.064;2023-02-18T04:01:39;10.60;99.90
13354;DHT22;6746;50.892;4.064;2023-02-18T04:04:18;10.60;99.90
13354;DHT22;6746;50.892;4.064;2023-02-18T04:06:56;10.60;99.90
13354;DHT22;6746;50.892;4.064;2023-02-18T04:09:34;10.60;99.90
13354;DHT22;6746;50.892;4.064;2023-02-18T04:12:15;10.60;99.90
13354;DHT22;6746;50.892;4.064;2023-02-18T04:14:54;10.60;99.90
13354;DHT22;6746;50.892;4.064;2023-02-18T04:17:41;10.50;99.90
13354;DHT22;6746;50.892;4.064;2023-02-18T04:20:30;10.50;99.90
13354;DHT22;6746;50.892;4.064;2023-02-18T04:23:18;10.50;99.90
13354;DHT22;6746;50.892;4.064;2023-02-18T04:25:56;10.50;99.90
13354;DHT22;6746;50.892;4.064;2023-02-18T04:28:35;10.50;99.90
13354;DHT22;6746;50.892;4.064;2023-02-18T04:31:15;10.50;99.90
13354;DHT22;6746;50.892;4.064;2023-02-18T04:33:54;10.50;99.90
13354;DHT22;6746;50.892;4.064;2023-02-18T04:36:42;10.50;99.90
13354;DHT22;6746;50.892;4.064;2023-02-18T04:39:25;10.50;99.90
13354;DHT22;6746;50.892;4.064;2023-02-18T04:42:04;10.50;99.90
13354;DHT22;6746;50.892;4.064;2023-02-18T04:44:45;10.50;99.90
13354;DHT22;6746;50.892;4.064;2023-02-18T04:47:23;10.50;99.90
13354;DHT22;6746;50.892;4.064;2023-02-18T04:50:11;10.50;99.90
13354;DHT22;6746;50.892;4.064;2023-02-18T04:52:50;10.50;99.90
13354;DHT22;6746;50.892;4.064;2023-02-18T04:55:28;10.50;99.90
13354;DHT22;6746;50.892;4.064;2023-02-18T04:58:06;10.50;99.90
13354;DHT22;6746;50.892;4.064;2023-02-18T05:00:44;10.50;99.90
13354;DHT22;6746;50.892;4.064;2023-02-18T05:03:32;10.50;99.90
13354;DHT22;6746;50.892;4.064;2023-02-18T05:06:20;10.40;99.90
13354;DHT22;6746;50.892;4.064;2023-02-18T05:09:09;10.40;99.90
13354;DHT22;6746;50.892;4.064;2023-02-18T05:11:52;10.40;99.90
13354;DHT22;6746;50.892;4.064;2023-02-18T05:14:31;10.40;99.90
13354;DHT22;6746;50.892;4.064;2023-02-18T05:17:19;10.40;99.90
13354;DHT22;6746;50.892;4.064;2023-02-18T05:19:57;10.30;99.90
13354;DHT22;6746;50.892;4.064;2023-02-18T05:22:36;10.30;99.90
13354;DHT22;6746;50.892;4.064;2023-02-18T05:25:16;10.30;99.90
13354;DHT22;6746;50.892;4.064;2023-02-18T05:27:54;10.30;99.90
13354;DHT22;6746;50.892;4.064;2023-02-18T05:30:35;10.20;99.90
13354;DHT22;6746;50.892;4.064;2023-02-18T05:33:14;10.20;99.90
13354;DHT22;6746;50.892;4.064;2023-02-18T05:36:01;10.20;99.90
13354;DHT22;6746;50.892;4.064;2023-02-18T05:38:40;10.20;99.90
13354;DHT22;6746;50.892;4.064;2023-02-18T05:41:18;10.20;99.90
13354;DHT22;6746;50.892;4.064;2023-02-18T05:44:04;10.20;99.90
13354;DHT22;6746;50.892;4.064;2023-02-18T05:47:07;10.20;99.90
13354;DHT22;6746;50.892;4.064;2023-02-18T05:49:44;10.20;99.90
13354;DHT22;6746;50.892;4.064;2023-02-18T05:52:23;10.20;99.90
13354;DHT22;6746;50.892;4.064;2023-02-18T05:55:01;10.20;99.90
13354;DHT22;6746;50.892;4.064;2023-02-18T05:57:39;10.20;99.90
13354;DHT22;6746;50.892;4.064;2023-02-18T06:00:23;10.20;99.90
13354;DHT22;6746;50.892;4.064;2023-02-18T06:03:01;10.20;99.90
13354;DHT22;6746;50.892;4.064;2023-02-18T06:05:49;10.30;99.90
13354;DHT22;6746;50.892;4.064;2023-02-18T06:08:36;10.20;99.90
13354;DHT22;6746;50.892;4.064;2023-02-18T06:11:25;10.20;99.90
13354;DHT22;6746;50.892;4.064;2023-02-18T06:14:13;10.20;99.90
13354;DHT22;6746;50.892;4.064;2023-02-18T06:16:56;10.20;99.90
13354;DHT22;6746;50.892;4.064;2023-02-18T06:19:35;10.30;99.90
13354;DHT22;6746;50.892;4.064;2023-02-18T06:22:18;10.20;99.90
13354;DHT22;6746;50.892;4.064;2023-02-18T06:24:56;10.30;99.90
13354;DHT22;6746;50.892;4.064;2023-02-18T06:27:34;10.30;99.90
13354;DHT22;6746;50.892;4.064;2023-02-18T06:30:13;10.30;99.90
13354;DHT22;6746;50.892;4.064;2023-02-18T06:32:59;10.30;99.90
13354;DHT22;6746;50.892;4.064;2023-02-18T06:35:37;10.30;99.90
13354;DHT22;6746;50.892;4.064;2023-02-18T06:38:25;10.20;99.90
13354;DHT22;6746;50.892;4.064;2023-02-18T06:41:03;10.20;99.90
13354;DHT22;6746;50.892;4.064;2023-02-18T06:43:42;10.20;99.90
13354;DHT22;6746;50.892;4.064;2023-02-18T06:46:20;10.30;99.90
13354;DHT22;6746;50.892;4.064;2023-02-18T06:48:58;10.20;99.90
13354;DHT22;6746;50.892;4.064;2023-02-18T06:51:46;10.20;99.90
13354;DHT22;6746;50.892;4.064;2023-02-18T06:54:34;10.20;99.90
13354;DHT22;6746;50.892;4.064;2023-02-18T06:57:22;10.20;99.90
13354;DHT22;6746;50.892;4.064;2023-02-18T07:00:04;10.30;99.90
13354;DHT22;6746;50.892;4.064;2023-02-18T07:02:42;10.30;99.90
13354;DHT22;6746;50.892;4.064;2023-02-18T07:05:26;10.30;99.90
13354;DHT22;6746;50.892;4.064;2023-02-18T07:08:04;10.30;99.90
13354;DHT22;6746;50.892;4.064;2023-02-18T07:10:52;10.30;99.90
13354;DHT22;6746;50.892;4.064;2023-02-18T07:13:39;10.30;99.90
13354;DHT22;6746;50.892;4.064;2023-02-18T07:16:16;10.30;99.90
13354;DHT22;6746;50.892;4.064;2023-02-18T07:18:45;10.30;99.90
13354;DHT22;6746;50.892;4.064;2023-02-18T07:21:31;10.30;99.90
13354;DHT22;6746;50.892;4.064;2023-02-18T07:24:10;10.30;99.90
13354;DHT22;6746;50.892;4.064;2023-02-18T07:26:39;10.30;99.90
13354;DHT22;6746;50.892;4.064;2023-02-18T07:29:07;10.30;99.90
13354;DHT22;6746;50.892;4.064;2023-02-18T07:31:36;10.30;99.90
13354;DHT22;6746;50.892;4.064;2023-02-18T07:34:08;10.30;99.90
13354;DHT22;6746;50.892;4.064;2023-02-18T07:36:46;10.40;99.90
13354;DHT22;6746;50.892;4.064;2023-02-18T07:39:15;10.40;99.90
13354;DHT22;6746;50.892;4.064;2023-02-18T07:41:43;10.40;99.90
13354;DHT22;6746;50.892;4.064;2023-02-18T07:44:22;10.40;99.90
13354;DHT22;6746;50.892;4.064;2023-02-18T07:47:00;10.50;99.90
13354;DHT22;6746;50.892;4.064;2023-02-18T07:49:38;10.50;99.90
13354;DHT22;6746;50.892;4.064;2023-02-18T07:52:07;10.50;99.90
13354;DHT22;6746;50.892;4.064;2023-02-18T07:54:36;10.50;99.90
13354;DHT22;6746;50.892;4.064;2023-02-18T07:57:14;10.50;99.90
13354;DHT22;6746;50.892;4.064;2023-02-18T07:59:53;10.60;99.90
13354;DHT22;6746;50.892;4.064;2023-02-18T08:02:21;10.60;99.90
13354;DHT22;6746;50.892;4.064;2023-02-18T08:04:52;10.60;99.90
13354;DHT22;6746;50.892;4.064;2023-02-18T08:07:26;10.60;99.90
13354;DHT22;6746;50.892;4.064;2023-02-18T08:09:55;10.70;99.90
13354;DHT22;6746;50.892;4.064;2023-02-18T08:12:24;10.70;99.90
13354;DHT22;6746;50.892;4.064;2023-02-18T08:14:53;10.70;99.90
13354;DHT22;6746;50.892;4.064;2023-02-18T08:17:22;10.70;99.90
13354;DHT22;6746;50.892;4.064;2023-02-18T08:19:51;10.80;99.90
13354;DHT22;6746;50.892;4.064;2023-02-18T08:22:20;10.80;99.90
13354;DHT22;6746;50.892;4.064;2023-02-18T08:24:52;10.80;99.90
13354;DHT22;6746;50.892;4.064;2023-02-18T08:27:29;10.80;99.90
13354;DHT22;6746;50.892;4.064;2023-02-18T08:30:06;10.90;99.90
13354;DHT22;6746;50.892;4.064;2023-02-18T08:32:35;10.90;99.90
13354;DHT22;6746;50.892;4.064;2023-02-18T08:35:13;11.00;99.90
13354;DHT22;6746;50.892;4.064;2023-02-18T08:37:47;11.00;99.90
13354;DHT22;6746;50.892;4.064;2023-02-18T08:40:16;11.00;99.90
13354;DHT22;6746;50.892;4.064;2023-02-18T08:42:55;11.00;99.90
13354;DHT22;6746;50.892;4.064;2023-02-18T08:45:23;11.00;99.90
13354;DHT22;6746;50.892;4.064;2023-02-18T08:47:52;11.00;99.90
13354;DHT22;6746;50.892;4.064;2023-02-18T08:50:28;10.90;99.90
13354;DHT22;6746;50.892;4.064;2023-02-18T08:52:57;11.00;99.90
13354;DHT22;6746;50.892;4.064;2023-02-18T08:55:31;11.00;99.90
13354;DHT22;6746;50.892;4.064;2023-02-18T08:58:00;11.10;99.90
13354;DHT22;6746;50.892;4.064;2023-02-18T09:00:34;11.20;99.90
13354;DHT22;6746;50.892;4.064;2023-02-18T09:03:03;11.30;99.90
13354;DHT22;6746;50.892;4.064;2023-02-18T09:05:46;11.30;99.90
13354;DHT22;6746;50.892;4.064;2023-02-18T09:08:20;11.40;99.90
13354;DHT22;6746;50.892;4.064;2023-02-18T09:10:53;11.40;99.90
13354;DHT22;6746;50.892;4.064;2023-02-18T09:13:18;11.50;99.90
13354;DHT22;6746;50.892;4.064;2023-02-18T09:15:54;11.50;99.90
13354;DHT22;6746;50.892;4.064;2023-02-18T09:18:26;11.50;99.90
13354;DHT22;6746;50.892;4.064;2023-02-18T09:20:55;11.40;99.90
13354;DHT22;6746;50.892;4.064;2023-02-18T09:23:27;11.40;99.90
13354;DHT22;6746;50.892;4.064;2023-02-18T09:26:02;11.40;99.90
13354;DHT22;6746;50.892;4.064;2023-02-18T09:28:29;11.50;99.90
13354;DHT22;6746;50.892;4.064;2023-02-18T09:31:02;11.50;99.90
13354;DHT22;6746;50.892;4.064;2023-02-18T09:33:26;11.60;99.90
13354;DHT22;6746;50.892;4.064;2023-02-18T09:36:03;11.60;99.90
13354;DHT22;6746;50.892;4.064;2023-02-18T09:38:32;11.60;99.90
13354;DHT22;6746;50.892;4.064;2023-02-18T09:41:16;11.70;99.90
13354;DHT22;6746;50.892;4.064;2023-02-18T09:43:44;11.70;99.90
13354;DHT22;6746;50.892;4.064;2023-02-18T09:46:17;11.70;99.90
13354;DHT22;6746;50.892;4.064;2023-02-18T09:48:59;11.80;99.90
13354;DHT22;6746;50.892;4.064;2023-02-18T09:51:35;11.90;99.90
13354;DHT22;6746;50.892;4.064;2023-02-18T09:54:14;11.90;99.90
13354;DHT22;6746;50.892;4.064;2023-02-18T09:56:47;11.80;99.90
13354;DHT22;6746;50.892;4.064;2023-02-18T09:59:19;11.80;99.90
13354;DHT22;6746;50.892;4.064;2023-02-18T10:01:48;11.80;99.90
13354;DHT22;6746;50.892;4.064;2023-02-18T10:04:21;11.80;99.90
13354;DHT22;6746;50.892;4.064;2023-02-18T10:06:57;11.80;99.90
13354;DHT22;6746;50.892;4.064;2023-02-18T10:09:45;11.90;99.90
13354;DHT22;6746;50.892;4.064;2023-02-18T10:12:24;11.90;99.90
13354;DHT22;6746;50.892;4.064;2023-02-18T10:15:01;11.90;99.90
13354;DHT22;6746;50.892;4.064;2023-02-18T10:17:35;11.90;99.90
13354;DHT22;6746;50.892;4.064;2023-02-18T10:20:04;11.90;99.90
13354;DHT22;6746;50.892;4.064;2023-02-18T10:22:41;11.90;99.90
13354;DHT22;6746;50.892;4.064;2023-02-18T10:25:14;12.00;99.90
13354;DHT22;6746;50.892;4.064;2023-02-18T10:27:47;11.90;99.90
13354;DHT22;6746;50.892;4.064;2023-02-18T10:32:55;11.90;99.90
13354;DHT22;6746;50.892;4.064;2023-02-18T10:35:44;11.90;99.90
13354;DHT22;6746;50.892;4.064;2023-02-18T10:39:00;11.90;99.90
13354;DHT22;6746;50.892;4.064;2023-02-18T10:44:08;12.00;99.90
13354;DHT22;6746;50.892;4.064;2023-02-18T10:52:29;12.00;99.90
13354;DHT22;6746;50.892;4.064;2023-02-18T10:55:16;12.00;99.90
13354;DHT22;6746;50.892;4.064;2023-02-18T10:57:54;12.00;99.90
13354;DHT22;6746;50.892;4.064;2023-02-18T11:00:34;12.10;99.90
13354;DHT22;6746;50.892;4.064;2023-02-18T11:05:45;12.10;99.90
13354;DHT22;6746;50.892;4.064;2023-02-18T11:08:15;12.10;99.90
13354;DHT22;6746;50.892;4.064;2023-02-18T11:10:45;12.20;99.90
13354;DHT22;6746;50.892;4.064;2023-02-18T11:13:14;12.20;99.90
13354;DHT22;6746;50.892;4.064;2023-02-18T11:15:57;12.20;99.90
13354;DHT22;6746;50.892;4.064;2023-02-18T11:23:53;12.20;99.90
13354;DHT22;6746;50.892;4.064;2023-02-18T11:26:32;12.20;99.90
13354;DHT22;6746;50.892;4.064;2023-02-18T11:29:04;12.20;99.90
13354;DHT22;6746;50.892;4.064;2023-02-18T11:31:30;12.30;99.90
13354;DHT22;6746;50.892;4.064;2023-02-18T11:33:58;12.30;99.90
13354;DHT22;6746;50.892;4.064;2023-02-18T11:39:05;12.30;99.90
13354;DHT22;6746;50.892;4.064;2023-02-18T11:41:34;12.40;99.90
13354;DHT22;6746;50.892;4.064;2023-02-18T11:44:04;12.40;99.90
13354;DHT22;6746;50.892;4.064;2023-02-18T11:47:05;12.50;99.90
13354;DHT22;6746;50.892;4.064;2023-02-18T11:49:36;12.50;99.90
13354;DHT22;6746;50.892;4.064;2023-02-18T11:54:59;12.50;99.90
13354;DHT22;6746;50.892;4.064;2023-02-18T11:57:29;12.50;99.90
13354;DHT22;6746;50.892;4.064;2023-02-18T12:02:57;12.70;99.90
13354;DHT22;6746;50.892;4.064;2023-02-18T12:05:26;12.70;99.90
13354;DHT22;6746;50.892;4.064;2023-02-18T12:08:43;12.70;99.90
13354;DHT22;6746;50.892;4.064;2023-02-18T12:10:48;12.70;99.90
13354;DHT22;6746;50.892;4.064;2023-02-18T12:13:25;12.80;99.90
13354;DHT22;6746;50.892;4.064;2023-02-18T12:18:56;12.70;99.90
13354;DHT22;6746;50.892;4.064;2023-02-18T12:21:37;12.70;99.90
13354;DHT22;6746;50.892;4.064;2023-02-18T12:27:15;12.70;99.90
13354;DHT22;6746;50.892;4.064;2023-02-18T12:38:17;12.60;99.90
13354;DHT22;6746;50.892;4.064;2023-02-18T12:46:31;12.50;99.90
13354;DHT22;6746;50.892;4.064;2023-02-18T12:57:17;12.30;99.90
13354;DHT22;6746;50.892;4.064;2023-02-18T12:59:55;12.30;99.90
13354;DHT22;6746;50.892;4.064;2023-02-18T13:02:34;12.20;99.90
13354;DHT22;6746;50.892;4.064;2023-02-18T13:05:37;12.00;99.90
13354;DHT22;6746;50.892;4.064;2023-02-18T13:11:03;11.90;99.90
13354;DHT22;6746;50.892;4.064;2023-02-18T13:13:41;11.80;99.90
13354;DHT22;6746;50.892;4.064;2023-02-18T13:16:18;11.80;99.90
13354;DHT22;6746;50.892;4.064;2023-02-18T13:18:49;11.80;99.90
13354;DHT22;6746;50.892;4.064;2023-02-18T13:21:17;11.80;99.90
13354;DHT22;6746;50.892;4.064;2023-02-18T13:24:05;11.70;99.90
13354;DHT22;6746;50.892;4.064;2023-02-18T13:26:30;11.70;99.90
13354;DHT22;6746;50.892;4.064;2023-02-18T13:29:13;11.70;99.90
13354;DHT22;6746;50.892;4.064;2023-02-18T13:35:17;11.60;99.90
13354;DHT22;6746;50.892;4.064;2023-02-18T13:40:25;11.50;99.90
13354;DHT22;6746;50.892;4.064;2023-02-18T13:46:14;11.50;99.90
13354;DHT22;6746;50.892;4.064;2023-02-18T13:48:51;11.50;99.90
13354;DHT22;6746;50.892;4.064;2023-02-18T13:51:31;11.50;99.90
13354;DHT22;6746;50.892;4.064;2023-02-18T13:56:44;11.50;99.90
13354;DHT22;6746;50.892;4.064;2023-02-18T13:59:39;11.50;99.90
13354;DHT22;6746;50.892;4.064;2023-02-18T14:01:51;11.50;99.90
13354;DHT22;6746;50.892;4.064;2023-02-18T14:09:57;11.50;99.90
13354;DHT22;6746;50.892;4.064;2023-02-18T14:21:02;11.40;99.90
13354;DHT22;6746;50.892;4.064;2023-02-18T14:23:43;11.50;99.90
13354;DHT22;6746;50.892;4.064;2023-02-18T14:26:05;11.60;99.90
13354;DHT22;6746;50.892;4.064;2023-02-18T14:28:38;11.60;99.90
13354;DHT22;6746;50.892;4.064;2023-02-18T14:33:41;11.50;99.90
13354;DHT22;6746;50.892;4.064;2023-02-18T14:43:02;11.60;99.90
13354;DHT22;6746;50.892;4.064;2023-02-18T14:51:58;11.70;99.90
13354;DHT22;6746;50.892;4.064;2023-02-18T14:54:30;11.70;99.90
13354;DHT22;6746;50.892;4.064;2023-02-18T14:59:39;11.70;99.90
13354;DHT22;6746;50.892;4.064;2023-02-18T15:02:25;11.70;99.90
13354;DHT22;6746;50.892;4.064;2023-02-18T15:05:16;11.60;99.90
13354;DHT22;6746;50.892;4.064;2023-02-18T15:08:11;11.70;99.90
13354;DHT22;6746;50.892;4.064;2023-02-18T15:10:38;11.60;99.90
13354;DHT22;6746;50.892;4.064;2023-02-18T15:13:21;11.70;99.90
13354;DHT22;6746;50.892;4.064;2023-02-18T15:15:59;11.70;99.90
13354;DHT22;6746;50.892;4.064;2023-02-18T15:18:37;11.60;99.90
13354;DHT22;6746;50.892;4.064;2023-02-18T15:26:45;11.60;99.90
13354;DHT22;6746;50.892;4.064;2023-02-18T15:29:32;11.60;99.90
13354;DHT22;6746;50.892;4.064;2023-02-18T15:32:16;11.60;99.90
13354;DHT22;6746;50.892;4.064;2023-02-18T15:34:43;11.70;99.90
13354;DHT22;6746;50.892;4.064;2023-02-18T15:37:12;11.70;99.90
13354;DHT22;6746;50.892;4.064;2023-02-18T15:39:50;11.60;99.90
13354;DHT22;6746;50.892;4.064;2023-02-18T15:42:32;11.70;99.90
13354;DHT22;6746;50.892;4.064;2023-02-18T15:47:50;11.70;99.90
13354;DHT22;6746;50.892;4.064;2023-02-18T15:50:28;11.60;99.90
13354;DHT22;6746;50.892;4.064;2023-02-18T15:53:07;11.60;99.90
13354;DHT22;6746;50.892;4.064;2023-02-18T15:55:39;11.60;99.90
13354;DHT22;6746;50.892;4.064;2023-02-18T15:58:25;11.60;99.90
13354;DHT22;6746;50.892;4.064;2023-02-18T16:01:03;11.60;99.90
13354;DHT22;6746;50.892;4.064;2023-02-18T16:03:36;11.60;99.90
13354;DHT22;6746;50.892;4.064;2023-02-18T16:06:27;11.60;99.90
13354;DHT22;6746;50.892;4.064;2023-02-18T16:09:36;11.60;99.90
13354;DHT22;6746;50.892;4.064;2023-02-18T16:12:12;11.60;99.90
13354;DHT22;6746;50.892;4.064;2023-02-18T16:14:46;11.60;99.90
13354;DHT22;6746;50.892;4.064;2023-02-18T16:17:24;11.60;99.90
13354;DHT22;6746;50.892;4.064;2023-02-18T16:20:36;11.60;99.90
13354;DHT22;6746;50.892;4.064;2023-02-18T16:22:52;11.60;99.90
13354;DHT22;6746;50.892;4.064;2023-02-18T16:31:11;11.50;99.90
13354;DHT22;6746;50.892;4.064;2023-02-18T16:33:49;11.50;99.90
13354;DHT22;6746;50.892;4.064;2023-02-18T16:36:27;11.50;99.90
13354;DHT22;6746;50.892;4.064;2023-02-18T16:39:05;11.50;99.90
13354;DHT22;6746;50.892;4.064;2023-02-18T16:41:43;11.50;99.90
13354;DHT22;6746;50.892;4.064;2023-02-18T16:44:22;11.50;99.90
13354;DHT22;6746;50.892;4.064;2023-02-18T16:47:00;11.50;99.90
13354;DHT22;6746;50.892;4.064;2023-02-18T16:49:38;11.50;99.90
13354;DHT22;6746;50.892;4.064;2023-02-18T16:52:16;11.50;99.90
13354;DHT22;6746;50.892;4.064;2023-02-18T16:55:08;11.50;99.90
13354;DHT22;6746;50.892;4.064;2023-02-18T16:57:42;11.50;99.90
13354;DHT22;6746;50.892;4.064;2023-02-18T17:00:21;11.40;99.90
13354;DHT22;6746;50.892;4.064;2023-02-18T17:02:59;11.40;99.90
13354;DHT22;6746;50.892;4.064;2023-02-18T17:05:29;11.40;99.90
13354;DHT22;6746;50.892;4.064;2023-02-18T17:08:05;11.40;99.90
13354;DHT22;6746;50.892;4.064;2023-02-18T17:10:28;11.40;99.90
13354;DHT22;6746;50.892;4.064;2023-02-18T17:13:10;11.40;99.90
13354;DHT22;6746;50.892;4.064;2023-02-18T17:16:00;11.40;99.90
13354;DHT22;6746;50.892;4.064;2023-02-18T17:18:44;11.40;99.90
13354;DHT22;6746;50.892;4.064;2023-02-18T17:21:23;11.40;99.90
13354;DHT22;6746;50.892;4.064;2023-02-18T17:24:14;11.40;99.90
13354;DHT22;6746;50.892;4.064;2023-02-18T17:26:51;11.40;99.90
13354;DHT22;6746;50.892;4.064;2023-02-18T17:29:32;11.30;99.90
13354;DHT22;6746;50.892;4.064;2023-02-18T17:32:15;11.30;99.90
13354;DHT22;6746;50.892;4.064;2023-02-18T17:34:55;11.30;99.90
13354;DHT22;6746;50.892;4.064;2023-02-18T17:37:34;11.40;99.90
13354;DHT22;6746;50.892;4.064;2023-02-18T17:40:13;11.30;99.90
13354;DHT22;6746;50.892;4.064;2023-02-18T17:42:56;11.30;99.90
13354;DHT22;6746;50.892;4.064;2023-02-18T17:45:35;11.40;99.90
13354;DHT22;6746;50.892;4.064;2023-02-18T17:48:12;11.30;99.90
13354;DHT22;6746;50.892;4.064;2023-02-18T17:50:51;11.30;99.90
13354;DHT22;6746;50.892;4.064;2023-02-18T17:53:38;11.30;99.90
13354;DHT22;6746;50.892;4.064;2023-02-18T17:56:26;11.30;99.90
13354;DHT22;6746;50.892;4.064;2023-02-18T17:59:14;11.30;99.90
13354;DHT22;6746;50.892;4.064;2023-02-18T18:02:01;11.30;99.90
13354;DHT22;6746;50.892;4.064;2023-02-18T18:04:40;11.30;99.90
13354;DHT22;6746;50.892;4.064;2023-02-18T18:07:26;11.30;99.90
13354;DHT22;6746;50.892;4.064;2023-02-18T18:10:04;11.20;99.90
13354;DHT22;6746;50.892;4.064;2023-02-18T18:12:46;11.20;99.90
13354;DHT22;6746;50.892;4.064;2023-02-18T18:15:35;11.20;99.90
13354;DHT22;6746;50.892;4.064;2023-02-18T18:18:11;11.20;99.90
13354;DHT22;6746;50.892;4.064;2023-02-18T18:20:50;11.20;99.90
13354;DHT22;6746;50.892;4.064;2023-02-18T18:23:37;11.20;99.90
13354;DHT22;6746;50.892;4.064;2023-02-18T18:26:15;11.20;99.90
13354;DHT22;6746;50.892;4.064;2023-02-18T18:28:54;11.20;99.90
13354;DHT22;6746;50.892;4.064;2023-02-18T18:31:32;11.20;99.90
13354;DHT22;6746;50.892;4.064;2023-02-18T18:34:14;11.20;99.90
13354;DHT22;6746;50.892;4.064;2023-02-18T18:36:56;11.20;99.90
13354;DHT22;6746;50.892;4.064;2023-02-18T18:39:34;11.20;99.90
13354;DHT22;6746;50.892;4.064;2023-02-18T18:42:22;11.20;99.90
13354;DHT22;6746;50.892;4.064;2023-02-18T18:45:01;11.20;99.90
13354;DHT22;6746;50.892;4.064;2023-02-18T18:47:39;11.20;99.90
13354;DHT22;6746;50.892;4.064;2023-02-18T18:50:23;11.20;99.90
13354;DHT22;6746;50.892;4.064;2023-02-18T18:53:00;11.20;99.90
13354;DHT22;6746;50.892;4.064;2023-02-18T18:55:41;11.20;99.90
13354;DHT22;6746;50.892;4.064;2023-02-18T18:58:19;11.20;99.90
13354;DHT22;6746;50.892;4.064;2023-02-18T19:01:12;11.20;99.90
13354;DHT22;6746;50.892;4.064;2023-02-18T19:04:01;11.20;99.90
13354;DHT22;6746;50.892;4.064;2023-02-18T19:06:49;11.10;99.90
13354;DHT22;6746;50.892;4.064;2023-02-18T19:09:37;11.10;99.90
13354;DHT22;6746;50.892;4.064;2023-02-18T19:12:26;11.10;99.90
13354;DHT22;6746;50.892;4.064;2023-02-18T19:15:17;11.10;99.90
13354;DHT22;6746;50.892;4.064;2023-02-18T19:17:58;11.00;99.90
13354;DHT22;6746;50.892;4.064;2023-02-18T19:20:37;11.00;99.90
13354;DHT22;6746;50.892;4.064;2023-02-18T19:23:15;11.00;99.90
13354;DHT22;6746;50.892;4.064;2023-02-18T19:25:53;10.90;99.90
13354;DHT22;6746;50.892;4.064;2023-02-18T19:28:41;10.90;99.90
13354;DHT22;6746;50.892;4.064;2023-02-18T19:31:24;10.90;99.90
13354;DHT22;6746;50.892;4.064;2023-02-18T19:34:03;10.80;99.90
13354;DHT22;6746;50.892;4.064;2023-02-18T19:36:51;10.80;99.90
13354;DHT22;6746;50.892;4.064;2023-02-18T19:39:29;10.80;99.90